createdAt,value
2018-04-19T00:00:08.650Z,18.30
2018-04-19T00:02:36.814Z,18.20
2018-04-19T00:05:05.817Z,18.20
2018-04-19T00:07:33.937Z,18.10
2018-04-19T00:10:02.155Z,18.10
2018-04-19T00:12:31.038Z,18.00
2018-04-19T00:14:59.921Z,18.00
2018-04-19T00:17:28.810Z,17.90
2018-04-19T00:19:57.735Z,17.90
2018-04-19T00:22:25.847Z,17.80
2018-04-19T00:24:53.982Z,17.80
2018-04-19T00:27:22.147Z,17.80
2018-04-19T00:29:50.310Z,17.70
2018-04-19T00:32:18.426Z,17.70
2018-04-19T00:34:46.590Z,17.60
2018-04-19T00:37:14.718Z,17.60
2018-04-19T00:39:43.605Z,17.50
2018-04-19T00:42:12.490Z,17.50
2018-04-19T00:44:40.618Z,17.50
2018-04-19T00:47:08.762Z,17.40
2018-04-19T00:49:36.874Z,17.40
2018-04-19T00:52:05.002Z,17.40
2018-04-19T00:54:33.134Z,17.30
2018-04-19T00:57:01.362Z,17.30
2018-04-19T00:59:29.472Z,17.30
2018-04-19T01:01:57.606Z,17.20
2018-04-19T01:04:25.760Z,17.20
2018-04-19T01:06:54.648Z,17.20
2018-04-19T01:09:23.530Z,17.10
2018-04-19T01:11:52.415Z,17.10
2018-04-19T01:14:20.560Z,17.10
2018-04-19T01:16:48.688Z,17.10
2018-04-19T01:19:17.585Z,17.00
2018-04-19T01:21:45.705Z,17.00
2018-04-19T01:24:13.931Z,17.00
2018-04-19T01:26:42.927Z,16.90
2018-04-19T01:29:11.044Z,16.90
2018-04-19T01:31:39.278Z,16.90
2018-04-19T01:34:07.402Z,16.80
2018-04-19T01:36:35.527Z,16.80
2018-04-19T01:39:03.649Z,16.80
2018-04-19T01:41:31.787Z,16.80
2018-04-19T01:43:59.898Z,16.70
2018-04-19T01:46:28.018Z,16.70
2018-04-19T01:48:56.152Z,16.70
2018-04-19T01:51:25.778Z,16.60
2018-04-19T01:53:54.730Z,16.60
2018-04-19T01:56:22.868Z,16.60
2018-04-19T01:58:51.014Z,16.60
2018-04-19T02:01:19.892Z,16.50
2018-04-19T02:03:47.999Z,16.50
2018-04-19T02:06:16.130Z,16.50
2018-04-19T02:08:45.042Z,16.50
2018-04-19T02:11:13.925Z,16.40
2018-04-19T02:13:42.806Z,16.40
2018-04-19T02:16:11.722Z,16.40
2018-04-19T02:18:39.854Z,16.30
2018-04-19T02:21:07.966Z,16.30
2018-04-19T02:23:36.085Z,16.30
2018-04-19T02:26:04.222Z,16.30
2018-04-19T02:28:32.383Z,16.20
2018-04-19T02:31:01.262Z,16.20
2018-04-19T02:33:30.167Z,16.10
2018-04-19T02:35:59.041Z,16.10
2018-04-19T02:38:27.936Z,16.10
2018-04-19T02:40:56.829Z,16.00
2018-04-19T02:43:25.720Z,16.00
2018-04-19T02:45:54.627Z,16.00
2018-04-19T02:48:22.759Z,16.00
2018-04-19T02:50:50.886Z,16.00
2018-04-19T02:53:19.039Z,15.90
2018-04-19T02:55:47.181Z,15.90
2018-04-19T02:58:15.383Z,15.90
2018-04-19T03:00:43.563Z,15.80
2018-04-19T03:03:11.711Z,15.80
2018-04-19T03:05:40.633Z,15.70
2018-04-19T03:08:08.746Z,15.70
2018-04-19T03:10:36.979Z,15.70
2018-04-19T03:13:05.153Z,15.70
2018-04-19T03:15:33.276Z,15.60
2018-04-19T03:18:01.398Z,15.60
2018-04-19T03:20:29.531Z,15.60
2018-04-19T03:22:59.157Z,15.50
2018-04-19T03:25:28.039Z,15.50
2018-04-19T03:27:56.151Z,15.50
2018-04-19T03:30:24.277Z,15.50
2018-04-19T03:32:52.399Z,15.40
2018-04-19T03:35:20.521Z,15.40
2018-04-19T03:37:48.661Z,15.40
2018-04-19T03:40:16.799Z,15.30
2018-04-19T03:42:45.696Z,15.30
2018-04-19T03:45:13.847Z,15.30
2018-04-19T03:47:42.758Z,15.30
2018-04-19T03:50:10.886Z,15.20
2018-04-19T03:52:40.514Z,15.20
2018-04-19T03:55:09.424Z,15.20
2018-04-19T03:57:38.314Z,15.20
2018-04-19T04:00:06.432Z,15.10
2018-04-19T04:02:34.570Z,15.20
2018-04-19T04:05:02.738Z,15.10
2018-04-19T04:07:30.906Z,15.10
2018-04-19T04:09:59.021Z,15.10
2018-04-19T04:12:27.173Z,15.10
2018-04-19T04:14:55.315Z,15.00
2018-04-19T04:17:36.079Z,15.00
2018-04-19T04:23:22.550Z,15.00
2018-04-19T04:25:50.671Z,15.00
2018-04-19T04:28:19.560Z,14.90
2018-04-19T04:30:47.718Z,14.90
2018-04-19T04:33:15.831Z,14.90
2018-04-19T04:35:44.710Z,14.90
2018-04-19T04:38:13.594Z,14.90
2018-04-19T04:40:42.470Z,14.90
2018-04-19T04:43:11.112Z,14.90
2018-04-19T04:45:39.226Z,14.90
2018-04-19T04:48:07.350Z,14.90
2018-04-19T04:50:35.530Z,14.90
2018-04-19T04:53:03.638Z,14.90
2018-04-19T04:55:31.750Z,14.80
2018-04-19T04:57:59.909Z,14.90
2018-04-19T05:00:28.817Z,14.90
2018-04-19T05:02:57.896Z,14.90
2018-04-19T05:05:26.772Z,14.90
2018-04-19T05:07:54.883Z,14.90
2018-04-19T05:10:23.001Z,15.00
2018-04-19T05:12:51.159Z,15.00
2018-04-19T05:15:19.299Z,15.10
2018-04-19T05:17:47.418Z,15.10
2018-04-19T05:20:15.596Z,15.20
2018-04-19T05:22:43.714Z,15.20
2018-04-19T05:25:11.841Z,15.30
2018-04-19T05:27:40.722Z,15.30
2018-04-19T05:30:08.849Z,15.40
2018-04-19T05:32:36.994Z,15.40
2018-04-19T05:35:05.107Z,15.40
2018-04-19T05:37:33.214Z,15.40
2018-04-19T05:40:01.353Z,15.50
2018-04-19T05:42:29.501Z,15.50
2018-04-19T05:44:58.385Z,15.60
2018-04-19T05:47:27.297Z,15.60
2018-04-19T05:49:55.427Z,15.60
2018-04-19T05:52:23.597Z,15.60
2018-04-19T05:54:51.711Z,15.70
2018-04-19T05:57:19.821Z,15.70
2018-04-19T05:59:47.950Z,15.80
2018-04-19T06:02:16.094Z,15.80
2018-04-19T06:04:44.227Z,15.80
2018-04-19T06:07:12.344Z,15.90
2018-04-19T06:09:40.453Z,15.90
2018-04-19T06:12:08.617Z,16.00
2018-04-19T06:14:36.751Z,16.00
2018-04-19T06:17:06.399Z,16.20
2018-04-19T06:19:34.541Z,16.20
2018-04-19T06:22:02.676Z,16.30
2018-04-19T06:24:30.797Z,16.30
2018-04-19T06:26:59.714Z,16.50
2018-04-19T06:29:27.835Z,16.40
2018-04-19T06:31:55.980Z,16.60
2018-04-19T06:34:24.091Z,16.60
2018-04-19T06:36:52.243Z,16.60
2018-04-19T06:39:20.398Z,16.70
2018-04-19T06:41:48.508Z,16.80
2018-04-19T06:44:16.628Z,16.80
2018-04-19T06:46:44.764Z,16.90
2018-04-19T06:49:13.642Z,17.00
2018-04-19T06:51:41.776Z,17.00
2018-04-19T06:54:09.942Z,17.10
2018-04-19T06:56:38.094Z,17.10
2018-04-19T06:59:06.266Z,17.20
2018-04-19T07:01:35.163Z,17.40
2018-04-19T07:04:03.295Z,17.40
2018-04-19T07:06:31.499Z,17.50
2018-04-19T07:08:59.554Z,17.50
2018-04-19T07:11:27.655Z,17.70
2018-04-19T07:13:55.826Z,17.70
2018-04-19T07:16:24.718Z,17.90
2018-04-19T07:18:52.894Z,17.90
2018-04-19T07:21:21.770Z,18.20
2018-04-19T07:23:50.686Z,18.30
2018-04-19T07:26:18.834Z,18.30
2018-04-19T07:28:47.720Z,18.50
2018-04-19T07:31:16.595Z,18.70
2018-04-19T07:33:44.726Z,18.70
2018-04-19T07:36:12.860Z,18.80
2018-04-19T07:38:41.746Z,19.10
2018-04-19T07:41:10.646Z,19.20
2018-04-19T07:43:39.534Z,19.30
2018-04-19T07:46:08.455Z,19.50
2018-04-19T07:48:36.554Z,19.50
2018-04-19T07:51:04.673Z,19.60
2018-04-19T07:53:33.576Z,19.90
2018-04-19T07:56:02.463Z,20.00
2018-04-19T07:58:30.593Z,20.00
2018-04-19T08:00:58.681Z,20.20
2018-04-19T08:03:26.846Z,20.30
2018-04-19T08:05:55.059Z,20.40
2018-04-19T08:08:23.257Z,20.50
2018-04-19T08:10:51.362Z,20.60
2018-04-19T08:13:19.586Z,20.70
2018-04-19T08:15:47.730Z,20.80
2018-04-19T08:18:16.602Z,21.10
2018-04-19T08:20:44.754Z,21.10
2018-04-19T08:23:12.869Z,21.20
2018-04-19T08:25:41.808Z,21.40
2018-04-19T08:28:09.937Z,21.30
2018-04-19T08:30:38.030Z,21.50
2018-04-19T08:33:06.186Z,21.60
2018-04-19T08:35:35.066Z,21.80
2018-04-19T08:38:04.815Z,21.80
2018-04-19T08:40:32.915Z,21.80
2018-04-19T08:43:01.041Z,21.90
2018-04-19T08:45:30.013Z,22.00
2018-04-19T08:47:58.117Z,22.00
2018-04-19T08:50:26.236Z,22.10
2018-04-19T08:52:54.347Z,22.10
2018-04-19T08:55:23.227Z,22.30
2018-04-19T08:57:52.147Z,22.40
2018-04-19T09:00:20.255Z,22.40
2018-04-19T09:02:48.393Z,22.50
2018-04-19T09:05:17.282Z,22.60
2018-04-19T09:07:45.421Z,22.60
2018-04-19T09:10:13.551Z,22.70
2018-04-19T09:12:41.683Z,22.70
2018-04-19T09:15:10.679Z,22.90
2018-04-19T09:17:39.593Z,23.00
2018-04-19T09:20:07.705Z,23.00
2018-04-19T09:22:35.917Z,23.10
2018-04-19T09:25:04.843Z,23.30
2018-04-19T09:27:33.013Z,23.30
2018-04-19T09:30:01.117Z,23.40
2018-04-19T09:32:29.225Z,23.60
2018-04-19T09:34:58.143Z,23.80
2018-04-19T09:37:27.040Z,23.80
2018-04-19T09:39:55.136Z,23.80
2018-04-19T09:42:23.247Z,23.90
2018-04-19T09:44:51.407Z,24.00
2018-04-19T09:47:19.518Z,24.10
2018-04-19T09:49:47.628Z,24.20
2018-04-19T09:52:15.754Z,24.20
2018-04-19T09:54:43.916Z,24.40
2018-04-19T09:57:12.820Z,24.50
2018-04-19T09:59:40.932Z,24.50
2018-04-19T10:02:09.088Z,24.60
2018-04-19T10:04:37.183Z,24.70
2018-04-19T10:07:05.301Z,24.80
2018-04-19T10:09:34.298Z,24.90
2018-04-19T10:12:02.420Z,24.90
2018-04-19T10:14:30.526Z,25.00
2018-04-19T10:16:59.434Z,25.10
2018-04-19T10:19:28.357Z,25.20
2018-04-19T10:21:56.497Z,25.20
2018-04-19T10:24:25.449Z,25.30
2018-04-19T10:26:53.572Z,25.20
2018-04-19T10:29:22.443Z,25.40
2018-04-19T10:31:51.333Z,25.40
2018-04-19T10:34:20.252Z,25.40
2018-04-19T10:36:48.371Z,25.40
2018-04-19T10:39:17.335Z,25.50
2018-04-19T10:41:45.439Z,25.50
2018-04-19T10:44:13.649Z,25.50
2018-04-19T10:46:42.564Z,25.70
2018-04-19T10:49:10.787Z,25.60
2018-04-19T10:51:38.840Z,25.70
2018-04-19T10:54:06.958Z,25.80
2018-04-19T10:56:35.838Z,25.80
2018-04-19T10:59:04.751Z,25.90
2018-04-19T11:01:32.866Z,25.90
2018-04-19T11:04:00.974Z,25.90
2018-04-19T11:06:29.854Z,26.00
2018-04-19T11:08:57.965Z,26.00
2018-04-19T11:11:26.123Z,26.00
2018-04-19T11:13:55.146Z,26.20
2018-04-19T11:16:23.247Z,26.20
2018-04-19T11:18:51.466Z,26.20
2018-04-19T11:21:19.569Z,26.20
2018-04-19T11:23:47.668Z,26.30
2018-04-19T11:26:15.819Z,26.30
2018-04-19T11:28:43.945Z,26.30
2018-04-19T11:31:12.832Z,26.40
2018-04-19T11:33:41.715Z,26.40
2018-04-19T11:36:09.838Z,26.40
2018-04-19T11:38:37.938Z,26.50
2018-04-19T11:41:06.054Z,26.50
2018-04-19T11:43:34.972Z,26.60
2018-04-19T11:46:03.104Z,26.60
2018-04-19T11:48:31.216Z,26.60
2018-04-19T11:50:59.494Z,26.70
2018-04-19T11:53:27.570Z,26.70
2018-04-19T11:55:55.674Z,26.70
2018-04-19T11:58:23.917Z,26.80
2018-04-19T12:00:52.074Z,26.80
2018-04-19T12:03:20.213Z,26.80
2018-04-19T12:05:48.351Z,26.80
2018-04-19T12:08:16.496Z,26.90
2018-04-19T12:10:44.606Z,26.90
2018-04-19T12:13:12.758Z,27.00
2018-04-19T12:15:40.864Z,27.00
2018-04-19T12:18:09.016Z,27.10
2018-04-19T12:20:37.114Z,27.20
2018-04-19T12:23:06.751Z,27.20
2018-04-19T12:25:36.433Z,27.30
2018-04-19T12:28:04.521Z,27.20
2018-04-19T12:30:32.646Z,27.30
2018-04-19T12:33:00.746Z,27.30
2018-04-19T12:35:28.853Z,27.40
2018-04-19T12:37:57.789Z,27.50
2018-04-19T12:40:25.906Z,27.50
2018-04-19T12:42:54.781Z,27.60
2018-04-19T12:45:22.933Z,27.60
2018-04-19T12:47:51.038Z,27.70
2018-04-19T12:50:19.962Z,27.80
2018-04-19T12:52:48.148Z,27.80
2018-04-19T12:55:16.248Z,27.90
2018-04-19T12:57:44.353Z,27.90
2018-04-19T13:00:13.241Z,28.00
2018-04-19T13:02:42.113Z,28.10
2018-04-19T13:05:10.246Z,28.10
2018-04-19T13:07:38.397Z,28.20
2018-04-19T13:10:06.555Z,28.30
2018-04-19T13:12:35.545Z,28.30
2018-04-19T13:15:04.429Z,28.40
2018-04-19T13:17:32.550Z,28.30
2018-04-19T13:20:00.670Z,28.40
2018-04-19T13:22:28.800Z,28.50
2018-04-19T13:24:56.904Z,28.50
2018-04-19T13:27:25.014Z,28.50
2018-04-19T13:29:53.908Z,28.70
2018-04-19T13:32:22.107Z,28.60
2018-04-19T13:34:50.186Z,28.70
2018-04-19T13:37:18.308Z,28.80
2018-04-19T13:39:47.217Z,28.90
2018-04-19T13:42:15.361Z,28.90
2018-04-19T13:44:43.487Z,29.00
2018-04-19T13:47:11.634Z,29.10
2018-04-19T13:49:40.523Z,29.20
2018-04-19T13:52:09.409Z,29.20
2018-04-19T13:54:38.279Z,29.20
2018-04-19T13:57:07.943Z,29.30
2018-04-19T13:59:36.091Z,29.30
2018-04-19T14:02:04.998Z,29.40
2018-04-19T14:04:33.898Z,29.50
2018-04-19T14:07:01.995Z,29.50
2018-04-19T14:09:30.109Z,29.60
2018-04-19T14:11:59.040Z,29.80
2018-04-19T14:14:27.145Z,29.70
2018-04-19T14:16:55.274Z,29.80
2018-04-19T14:19:23.386Z,30.00
2018-04-19T14:21:51.494Z,30.00
2018-04-19T14:24:20.360Z,30.20
2018-04-19T14:26:48.525Z,30.20
2018-04-19T14:29:16.663Z,30.20
2018-04-19T14:31:44.918Z,30.30
2018-04-19T14:34:13.023Z,30.30
2018-04-19T14:36:41.127Z,30.40
2018-04-19T14:39:09.361Z,30.40
2018-04-19T14:41:37.472Z,30.50
2018-04-19T14:44:05.612Z,30.50
2018-04-19T14:46:33.708Z,30.60
2018-04-19T14:49:01.838Z,30.70
2018-04-19T14:51:29.950Z,30.70
2018-04-19T14:53:58.074Z,30.70
2018-04-19T14:56:26.959Z,30.90
2018-04-19T14:58:55.966Z,30.90
2018-04-19T15:01:24.214Z,30.80
2018-04-19T15:03:53.102Z,30.90
2018-04-19T15:06:21.214Z,30.80
2018-04-19T15:08:50.098Z,30.90
2018-04-19T15:11:18.234Z,30.90
2018-04-19T15:13:46.328Z,31.00
2018-04-19T15:16:15.272Z,31.10
2018-04-19T15:18:44.167Z,31.10
2018-04-19T15:21:12.320Z,31.10
2018-04-19T15:23:40.425Z,31.30
2018-04-19T15:26:08.532Z,31.30
2018-04-19T15:28:37.555Z,31.40
2018-04-19T15:31:05.729Z,31.40
2018-04-19T15:33:33.813Z,31.50
2018-04-19T15:36:01.969Z,31.60
2018-04-19T15:38:30.150Z,31.70
2018-04-19T15:40:58.257Z,31.80
2018-04-19T15:43:26.392Z,31.80
2018-04-19T15:45:54.489Z,31.90
2018-04-19T15:48:22.618Z,31.90
2018-04-19T15:50:50.763Z,32.00
2018-04-19T15:53:18.876Z,32.10
2018-04-19T15:55:46.989Z,32.10
2018-04-19T15:58:15.229Z,32.20
2018-04-19T16:00:43.403Z,32.20
2018-04-19T16:03:11.562Z,32.30
2018-04-19T16:05:39.682Z,32.30
2018-04-19T16:08:07.799Z,32.40
2018-04-19T16:10:36.688Z,32.60
2018-04-19T16:13:05.677Z,32.70
2018-04-19T16:15:34.553Z,32.70
2018-04-19T16:18:02.773Z,32.70
2018-04-19T16:20:30.897Z,32.70
2018-04-19T16:22:59.040Z,32.80
2018-04-19T16:25:27.254Z,32.70
2018-04-19T16:27:56.140Z,32.70
2018-04-19T16:30:24.310Z,32.60
2018-04-19T16:32:52.441Z,32.70
2018-04-19T16:35:20.585Z,32.70
2018-04-19T16:37:48.755Z,32.70
2018-04-19T16:40:17.667Z,32.70
2018-04-19T16:42:45.844Z,32.70
2018-04-19T16:45:14.019Z,32.80
2018-04-19T16:47:42.122Z,32.80
2018-04-19T16:50:10.314Z,32.80
2018-04-19T16:52:38.406Z,32.90
2018-04-19T16:55:07.285Z,32.90
2018-04-19T16:57:35.477Z,32.80
2018-04-19T17:00:03.681Z,32.90
2018-04-19T17:02:31.844Z,32.90
2018-04-19T17:04:59.949Z,32.90
2018-04-19T17:07:28.098Z,32.90
2018-04-19T17:09:56.270Z,32.90
2018-04-19T17:12:24.362Z,32.90
2018-04-19T17:14:52.526Z,32.90
2018-04-19T17:17:20.643Z,32.80
2018-04-19T17:19:48.867Z,32.80
2018-04-19T17:22:16.962Z,32.80
2018-04-19T17:24:45.100Z,32.70
2018-04-19T17:27:13.218Z,32.70
2018-04-19T17:29:41.436Z,32.60
2018-04-19T17:32:10.344Z,32.50
2018-04-19T17:34:38.525Z,32.40
2018-04-19T17:37:06.627Z,32.50
2018-04-19T17:39:34.868Z,32.40
2018-04-19T17:42:03.008Z,32.30
2018-04-19T17:44:31.905Z,32.20
2018-04-19T17:47:00.818Z,32.10
2018-04-19T17:49:28.944Z,32.00
2018-04-19T17:51:57.075Z,32.00
2018-04-19T17:54:25.255Z,32.00
2018-04-19T17:56:53.362Z,31.90
2018-04-19T17:59:21.500Z,31.90
2018-04-19T18:01:58.299Z,31.80
2018-04-19T18:04:29.702Z,31.70
2018-04-19T18:06:59.759Z,31.50
2018-04-19T18:09:27.856Z,31.40
2018-04-19T18:11:56.064Z,31.20
2018-04-19T18:14:24.976Z,31.10
2018-04-19T18:16:53.153Z,31.10
2018-04-19T18:19:21.272Z,30.90
2018-04-19T18:21:49.410Z,30.90
2018-04-19T18:24:17.646Z,30.80
2018-04-19T18:29:31.068Z,30.40
2018-04-19T18:32:02.378Z,30.30
2018-04-19T18:34:31.369Z,30.20
2018-04-19T18:36:59.624Z,30.10
2018-04-19T18:39:27.750Z,30.00
2018-04-19T18:41:55.882Z,29.90
2018-04-19T18:44:24.058Z,29.70
2018-04-19T18:46:52.191Z,29.60
2018-04-19T18:49:21.123Z,29.30
2018-04-19T18:51:49.238Z,29.30
2018-04-19T18:54:17.472Z,29.10
2018-04-19T18:56:45.630Z,29.00
2018-04-19T18:59:13.819Z,28.90
2018-04-19T19:01:41.942Z,28.70
2018-04-19T19:04:10.064Z,28.60
2018-04-19T19:06:38.173Z,28.50
2018-04-19T19:09:06.296Z,28.40
2018-04-19T19:11:34.486Z,28.20
2018-04-19T19:14:02.646Z,28.00
2018-04-19T19:16:30.746Z,27.90
2018-04-19T19:19:12.050Z,27.80
2018-04-19T19:21:40.157Z,27.60
2018-04-19T19:24:09.062Z,27.40
2018-04-19T19:26:37.219Z,27.30
2018-04-19T19:29:06.118Z,27.10
2018-04-19T19:31:34.261Z,27.10
2018-04-19T19:34:02.389Z,27.00
2018-04-19T19:36:30.505Z,26.90
2018-04-19T19:38:58.616Z,26.80
2018-04-19T19:41:26.766Z,26.70
2018-04-19T19:43:54.886Z,26.60
2018-04-19T19:46:23.007Z,26.40
2018-04-19T19:48:51.178Z,26.30
2018-04-19T19:51:19.300Z,26.20
2018-04-19T19:53:47.472Z,26.10
2018-04-19T19:56:15.581Z,26.00
2018-04-19T19:58:43.694Z,25.90
2018-04-19T20:01:11.823Z,25.80
2018-04-19T20:03:40.055Z,25.60
2018-04-19T20:06:08.166Z,25.60
2018-04-19T20:08:36.275Z,25.50
2018-04-19T20:11:05.186Z,25.30
2018-04-19T20:13:33.344Z,25.20
2018-04-19T20:16:02.281Z,25.10
2018-04-19T20:18:30.417Z,25.00
2018-04-19T20:20:59.289Z,24.90
2018-04-19T20:23:28.179Z,24.80
2018-04-19T20:25:57.218Z,24.70
2018-04-19T20:28:25.331Z,24.70
2018-04-19T20:30:53.471Z,24.70
2018-04-19T20:33:21.591Z,24.60
2018-04-19T20:35:49.786Z,24.50
2018-04-19T20:38:18.668Z,24.30
2018-04-19T20:40:47.550Z,24.20
2018-04-19T20:43:16.475Z,24.20
2018-04-19T20:45:44.590Z,24.10
2018-04-19T20:48:12.720Z,24.00
2018-04-19T20:50:40.821Z,24.00
2018-04-19T20:53:08.978Z,23.90
2018-04-19T20:55:37.085Z,23.80
2018-04-19T20:58:05.201Z,23.80
2018-04-19T21:00:33.332Z,23.70
2018-04-19T21:03:02.227Z,23.60
2018-04-19T21:05:30.395Z,23.60
2018-04-19T21:07:58.490Z,23.50
2018-04-19T21:10:27.372Z,23.30
2018-04-19T21:12:55.554Z,23.30
2018-04-19T21:15:24.449Z,23.20
2018-04-19T21:17:52.630Z,23.20
2018-04-19T21:20:21.512Z,23.10
2018-04-19T21:22:50.415Z,23.00
2018-04-19T21:25:19.328Z,22.90
2018-04-19T21:27:47.438Z,22.90
2018-04-19T21:30:15.542Z,22.90
2018-04-19T21:32:44.463Z,22.70
2018-04-19T21:35:12.604Z,22.70
2018-04-19T21:37:41.484Z,22.60
2018-04-19T21:40:09.651Z,22.60
2018-04-19T21:42:37.777Z,22.50
2018-04-19T21:45:05.913Z,22.50
2018-04-19T21:47:34.235Z,22.40
2018-04-19T21:50:02.354Z,22.40
2018-04-19T21:52:30.519Z,22.30
2018-04-19T21:54:58.758Z,22.20
2018-04-19T21:57:26.857Z,22.20
2018-04-19T21:59:55.026Z,22.10
2018-04-19T22:02:23.200Z,22.10
2018-04-19T22:04:51.351Z,22.00
2018-04-19T22:07:19.492Z,21.90
2018-04-19T22:09:48.405Z,21.80
2018-04-19T22:12:16.547Z,21.80
2018-04-19T22:14:44.720Z,21.80
2018-04-19T22:17:12.948Z,21.70
2018-04-19T22:19:41.070Z,21.60
2018-04-19T22:22:09.972Z,21.50
2018-04-19T22:24:38.894Z,21.50
2018-04-19T22:27:07.038Z,21.50
2018-04-19T22:29:35.944Z,21.40
2018-04-19T22:32:04.074Z,21.40
2018-04-19T22:34:32.288Z,21.40
2018-04-19T22:37:00.424Z,21.30
2018-04-19T22:39:28.560Z,21.30
2018-04-19T22:41:56.732Z,21.20
2018-04-19T22:44:24.904Z,21.20
2018-04-19T22:46:53.106Z,21.10
2018-04-19T22:49:21.928Z,21.00
2018-04-19T22:51:50.796Z,21.00
2018-04-19T22:54:18.945Z,21.00
2018-04-19T22:56:47.099Z,20.90
2018-04-19T22:59:15.237Z,20.90
2018-04-19T23:01:45.400Z,20.80
2018-04-19T23:04:13.529Z,20.80
2018-04-19T23:06:41.648Z,20.80
2018-04-19T23:09:09.794Z,20.70
2018-04-19T23:11:38.687Z,20.60
2018-04-19T23:14:06.868Z,20.60
2018-04-19T23:16:35.008Z,20.60
2018-04-19T23:19:03.134Z,20.60
2018-04-19T23:21:31.258Z,20.50
2018-04-19T23:24:00.158Z,20.40
2018-04-19T23:26:29.078Z,20.40
2018-04-19T23:28:57.192Z,20.30
2018-04-19T23:31:25.374Z,20.30
2018-04-19T23:33:53.586Z,20.30
2018-04-19T23:36:21.727Z,20.20
2018-04-19T23:38:49.928Z,20.20
2018-04-19T23:41:18.107Z,20.10
2018-04-19T23:43:46.244Z,20.10
2018-04-19T23:46:14.445Z,20.10
2018-04-19T23:48:43.331Z,19.90
2018-04-19T23:51:12.228Z,19.90
2018-04-19T23:53:41.127Z,19.80
2018-04-19T23:56:09.289Z,19.90
2018-04-19T23:58:38.191Z,19.80
